Ncc Rabigh — HZQA — position and weather

sailwx.info

Track history (hours):
 
Tides and Currents Weather Stations Pressure Air Temp Water Temp Dewpoint Dewpoint Depression Visibility Wind Speed Wind Dir Waves Ship Positions

Ncc Rabigh

Last reported at 2016-May-22 07:13 UTC. Time now 2016-Jul-24 20:25 UTC.
Position N 30°60' E 032°19'.
Warning: this ship's position is months out of date.

Length 183 m; draft 11.2 m.

Type: Tanker. MMSI: 403575000.

Date/timePositionNaut miles runAvg speedWind from/ knotsBaromVisibWave heightAir tempDewpointWater temp
2016-May-22 07:13N 30°60' E 032°19'6 9.0
2016-May-22 06:33N 31°06' E 032°19'9 9.0
2016-May-22 05:34N 31°15' E 032°18'8 7.6
2016-May-22 04:34N 31°22' E 032°21'2 1.7
2016-May-22 03:33N 31°23' E 032°19'0 0.0
2016-May-22 02:33N 31°23' E 032°19'0 0.0
2016-May-22 01:33N 31°23' E 032°19'0 0.0
2016-May-22 00:33N 31°23' E 032°19'0 0.0
2016-May-21 23:18N 31°23' E 032°19'0 0.0
2016-May-21 21:33N 31°23' E 032°19'0 0.0
2016-May-21 20:30N 31°23' E 032°19'0 0.0
2016-May-21 19:30N 31°23' E 032°19'0 0.1
2016-May-21 18:33N 31°23' E 032°19'0 0.0
2016-May-21 17:33N 31°23' E 032°19'0 0.0
2016-May-21 15:06N 31°23' E 032°19'0 0.0
2016-May-21 12:33N 31°23' E 032°19'0 0.0
2016-May-21 11:33N 31°23' E 032°19'0 0.0
2016-May-21 10:21N 31°23' E 032°19'0 0.0
2016-May-21 09:33N 31°23' E 032°19'16 4.7
2016-May-21 06:09N 31°35' E 032°08'62 9.4
2016-May-20 23:33N 32°02' E 031°02'1212.3
2016-May-20 22:33N 32°06' E 030°48'1512.3
2016-May-20 21:18N 32°10' E 030°31'6012.0
2016-May-20 16:20N 32°29' E 029°23'61511.9
2016-May-18 12:32N 35°16' E 017°30'5012.0
2016-May-18 08:21N 35°29' E 016°31'4712.3
2016-May-18 04:33N 35°42' E 015°35'1412.2
2016-May-18 03:24N 35°46' E 015°18'1012.1
2016-May-18 02:33N 35°48' E 015°06'1212.2
2016-May-18 01:33N 35°51' E 014°51'4 3.6
2016-May-18 00:33N 35°53' E 014°47'0 0.0
2016-May-17 23:33N 35°53' E 014°47'0 0.0
2016-May-17 22:33N 35°53' E 014°47'0 0.0
2016-May-17 21:33N 35°53' E 014°47'0 0.0
2016-May-17 20:33N 35°53' E 014°47'0 0.0
2016-May-17 19:33N 35°53' E 014°47'0 0.1
2016-May-17 18:33N 35°53' E 014°47'4 3.8
2016-May-17 17:33N 35°56' E 014°45'1212.4
2016-May-17 16:33N 36°01' E 014°31'1514.8
2016-May-17 15:33N 36°09' E 014°16'1414.5
2016-May-17 14:33N 36°15' E 013°59'1414.2
2016-May-17 13:33N 36°22' E 013°44'1414.0
2016-May-17 12:33N 36°28' E 013°28'1414.3
2016-May-17 11:33N 36°34' E 013°12'1514.6
2016-May-17 10:33N 36°40' E 012°55'1514.9
2016-May-17 09:31N 36°47' E 012°38'1514.4
2016-May-17 08:27N 36°53' E 012°21'20214.5
2016-May-16 18:27N 38°30' E 008°36'32213.5
2016-May-15 18:31N 43°08' E 005°02'1313.8
2016-May-15 17:33N 43°21' E 004°58'3 2.7
2016-May-15 16:31N 43°24' E 004°60'0 0.0
2016-May-15 15:31N 43°24' E 004°60'0 0.0
2016-May-15 14:31N 43°24' E 004°60'0 0.0
2016-May-15 13:31N 43°24' E 004°60'0 0.0
2016-May-15 12:31N 43°24' E 004°60'0 0.0
2016-May-15 11:31N 43°24' E 004°60'0 0.0
2016-May-15 10:25N 43°24' E 004°60'0 0.0
2016-May-15 09:31N 43°24' E 004°60'0 0.0
2016-May-15 08:31N 43°24' E 004°60'0 0.0
2016-May-15 07:31N 43°24' E 004°60'0 0.0
2016-May-15 06:31N 43°24' E 004°60'0 0.0
2016-May-15 05:31N 43°24' E 004°60'0 0.0
2016-May-15 04:22N 43°24' E 004°60'0 0.0
2016-May-15 03:31N 43°24' E 004°60'0 0.0
2016-May-15 02:31N 43°24' E 004°60'0 0.0
2016-May-15 01:31N 43°24' E 004°60'0 0.0
2016-May-15 00:31N 43°24' E 004°60'0 0.0
2016-May-14 23:31N 43°24' E 004°60'0 0.0
2016-May-14 22:31N 43°24' E 004°60'0 0.0
2016-May-14 21:31N 43°24' E 004°60'0 0.0
2016-May-14 20:31N 43°24' E 004°60'0 0.0
2016-May-14 19:31N 43°24' E 004°60'0 0.0
2016-May-14 18:31N 43°24' E 004°60'0 0.0
2016-May-14 17:31N 43°24' E 004°60'0 0.0
2016-May-14 16:31N 43°24' E 004°60'0 0.0
2016-May-14 15:31N 43°24' E 004°60'0 0.0
2016-May-14 14:31N 43°24' E 004°60'0 0.0
2016-May-14 13:31N 43°24' E 004°60'0 0.0
2016-May-14 12:31N 43°24' E 004°60'0 0.0
2016-May-14 11:28N 43°24' E 004°60'0 0.0
2016-May-14 10:31N 43°24' E 004°60'0 0.0
2016-May-14 09:31N 43°24' E 004°60'0 0.0
2016-May-14 08:31N 43°24' E 004°60'0 0.0
2016-May-14 07:31N 43°24' E 004°60'0 0.0
2016-May-14 06:31N 43°24' E 004°60'0 0.0
2016-May-14 05:31N 43°24' E 004°60'0 0.0
2016-May-14 04:31N 43°24' E 004°60'0 0.0
2016-May-14 03:31N 43°24' E 004°60'0 0.0
2016-May-14 02:31N 43°24' E 004°60'0 0.0
2016-May-14 01:31N 43°24' E 004°60'0 0.0
2016-May-14 00:31N 43°24' E 004°60'0 0.0
2016-May-13 23:31N 43°24' E 004°60'0 0.0
2016-May-13 22:31N 43°24' E 004°60'0 0.0
2016-May-13 21:31N 43°24' E 004°60'0 0.0
2016-May-13 20:31N 43°24' E 004°60'0 0.0
2016-May-13 19:31N 43°24' E 004°60'0 0.0
2016-May-13 18:31N 43°24' E 004°60'0 0.0
2016-May-13 17:31N 43°24' E 004°60'0 0.0
2016-May-13 16:31N 43°24' E 004°60'0 0.0
2016-May-13 15:31N 43°24' E 004°60'0 0.0
2016-May-13 14:31N 43°24' E 004°60'0 0.0
2016-May-13 13:31N 43°24' E 004°60'0 0.0
2016-May-13 12:28N 43°24' E 004°60'0 0.0
2016-May-13 11:31N 43°24' E 004°60'0 0.0
2016-May-13 10:31N 43°24' E 004°60'0 0.0
2016-May-13 09:31N 43°24' E 004°60'0 0.0
2016-May-13 08:31N 43°24' E 004°60'0 0.0
2016-May-13 07:31N 43°24' E 004°60'0 0.0
2016-May-13 06:31N 43°24' E 004°60'0 0.0
2016-May-13 05:31N 43°24' E 004°60'0 0.0
2016-May-13 04:31N 43°24' E 004°60'0 0.0
2016-May-13 03:31N 43°24' E 004°60'0 0.0
2016-May-13 02:31N 43°24' E 004°60'0 0.0
2016-May-13 01:31N 43°24' E 004°60'0 0.0
2016-May-13 00:28N 43°24' E 004°60'0 0.0
2016-May-12 23:31N 43°24' E 004°60'0 0.0
2016-May-12 22:31N 43°24' E 004°60'0 0.0
2016-May-12 21:31N 43°24' E 004°60'0 0.0
2016-May-12 20:31N 43°24' E 004°60'0 0.0
2016-May-12 19:31N 43°24' E 004°60'0 0.0
2016-May-12 18:28N 43°24' E 004°60'0 0.0
2016-May-12 17:19N 43°24' E 004°60'0 0.0
2016-May-12 16:31N 43°24' E 004°60'0 0.0
2016-May-12 15:31N 43°24' E 004°60'0 0.0
2016-May-12 14:31N 43°24' E 004°60'0 0.0
2016-May-12 13:31N 43°24' E 004°60'0 0.0
2016-May-12 12:28N 43°24' E 004°60'0 0.0
2016-May-12 11:31N 43°24' E 004°60'0 0.0
2016-May-12 10:31N 43°24' E 004°60'0 0.0
2016-May-12 09:31N 43°24' E 004°60'0 0.0
2016-May-12 08:31N 43°24' E 004°60'0 0.0
2016-May-12 07:31N 43°24' E 004°60'  
Track history (hours):
 
Tides and Currents Weather Stations Pressure Air Temp Water Temp Dewpoint Dewpoint Depression Visibility Wind Speed Wind Dir Waves Ship Positions

Ncc Rabigh

Last reported at 2016-May-22 07:13 UTC. Time now 2016-Jul-24 20:25 UTC.
Position N 30°60' E 032°19'.
Warning: this ship's position is months out of date.

Length 183 m; draft 11.2 m.

Type: Tanker. MMSI: 403575000.

Date/timePositionNaut miles runAvg speedWind from/ knotsBaromVisibWave heightAir tempDewpointWater temp
2016-May-22 07:13N 30°60' E 032°19'6 9.0
2016-May-22 06:33N 31°06' E 032°19'9 9.0
2016-May-22 05:34N 31°15' E 032°18'8 7.6
2016-May-22 04:34N 31°22' E 032°21'2 1.7
2016-May-22 03:33N 31°23' E 032°19'0 0.0
2016-May-22 02:33N 31°23' E 032°19'0 0.0
2016-May-22 01:33N 31°23' E 032°19'0 0.0
2016-May-22 00:33N 31°23' E 032°19'0 0.0
2016-May-21 23:18N 31°23' E 032°19'0 0.0
2016-May-21 21:33N 31°23' E 032°19'0 0.0
2016-May-21 20:30N 31°23' E 032°19'0 0.0
2016-May-21 19:30N 31°23' E 032°19'0 0.1
2016-May-21 18:33N 31°23' E 032°19'0 0.0
2016-May-21 17:33N 31°23' E 032°19'0 0.0
2016-May-21 15:06N 31°23' E 032°19'0 0.0
2016-May-21 12:33N 31°23' E 032°19'0 0.0
2016-May-21 11:33N 31°23' E 032°19'0 0.0
2016-May-21 10:21N 31°23' E 032°19'0 0.0
2016-May-21 09:33N 31°23' E 032°19'16 4.7
2016-May-21 06:09N 31°35' E 032°08'62 9.4
2016-May-20 23:33N 32°02' E 031°02'1212.3
2016-May-20 22:33N 32°06' E 030°48'1512.3
2016-May-20 21:18N 32°10' E 030°31'6012.0
2016-May-20 16:20N 32°29' E 029°23'61511.9
2016-May-18 12:32N 35°16' E 017°30'5012.0
2016-May-18 08:21N 35°29' E 016°31'4712.3
2016-May-18 04:33N 35°42' E 015°35'1412.2
2016-May-18 03:24N 35°46' E 015°18'1012.1
2016-May-18 02:33N 35°48' E 015°06'1212.2
2016-May-18 01:33N 35°51' E 014°51'4 3.6
2016-May-18 00:33N 35°53' E 014°47'0 0.0
2016-May-17 23:33N 35°53' E 014°47'0 0.0
2016-May-17 22:33N 35°53' E 014°47'0 0.0
2016-May-17 21:33N 35°53' E 014°47'0 0.0
2016-May-17 20:33N 35°53' E 014°47'0 0.0
2016-May-17 19:33N 35°53' E 014°47'0 0.1
2016-May-17 18:33N 35°53' E 014°47'4 3.8
2016-May-17 17:33N 35°56' E 014°45'1212.4
2016-May-17 16:33N 36°01' E 014°31'1514.8
2016-May-17 15:33N 36°09' E 014°16'1414.5
2016-May-17 14:33N 36°15' E 013°59'1414.2
2016-May-17 13:33N 36°22' E 013°44'1414.0
2016-May-17 12:33N 36°28' E 013°28'1414.3
2016-May-17 11:33N 36°34' E 013°12'1514.6
2016-May-17 10:33N 36°40' E 012°55'1514.9
2016-May-17 09:31N 36°47' E 012°38'1514.4
2016-May-17 08:27N 36°53' E 012°21'20214.5
2016-May-16 18:27N 38°30' E 008°36'32213.5
2016-May-15 18:31N 43°08' E 005°02'1313.8
2016-May-15 17:33N 43°21' E 004°58'3 2.7
2016-May-15 16:31N 43°24' E 004°60'0 0.0
2016-May-15 15:31N 43°24' E 004°60'0 0.0
2016-May-15 14:31N 43°24' E 004°60'0 0.0
2016-May-15 13:31N 43°24' E 004°60'0 0.0
2016-May-15 12:31N 43°24' E 004°60'0 0.0
2016-May-15 11:31N 43°24' E 004°60'0 0.0
2016-May-15 10:25N 43°24' E 004°60'0 0.0
2016-May-15 09:31N 43°24' E 004°60'0 0.0
2016-May-15 08:31N 43°24' E 004°60'0 0.0
2016-May-15 07:31N 43°24' E 004°60'0 0.0
2016-May-15 06:31N 43°24' E 004°60'0 0.0
2016-May-15 05:31N 43°24' E 004°60'0 0.0
2016-May-15 04:22N 43°24' E 004°60'0 0.0
2016-May-15 03:31N 43°24' E 004°60'0 0.0
2016-May-15 02:31N 43°24' E 004°60'0 0.0
2016-May-15 01:31N 43°24' E 004°60'0 0.0
2016-May-15 00:31N 43°24' E 004°60'0 0.0
2016-May-14 23:31N 43°24' E 004°60'0 0.0
2016-May-14 22:31N 43°24' E 004°60'0 0.0
2016-May-14 21:31N 43°24' E 004°60'0 0.0
2016-May-14 20:31N 43°24' E 004°60'0 0.0
2016-May-14 19:31N 43°24' E 004°60'0 0.0
2016-May-14 18:31N 43°24' E 004°60'0 0.0
2016-May-14 17:31N 43°24' E 004°60'0 0.0
2016-May-14 16:31N 43°24' E 004°60'0 0.0
2016-May-14 15:31N 43°24' E 004°60'0 0.0
2016-May-14 14:31N 43°24' E 004°60'0 0.0
2016-May-14 13:31N 43°24' E 004°60'0 0.0
2016-May-14 12:31N 43°24' E 004°60'0 0.0
2016-May-14 11:28N 43°24' E 004°60'0 0.0
2016-May-14 10:31N 43°24' E 004°60'0 0.0
2016-May-14 09:31N 43°24' E 004°60'0 0.0
2016-May-14 08:31N 43°24' E 004°60'0 0.0
2016-May-14 07:31N 43°24' E 004°60'0 0.0
2016-May-14 06:31N 43°24' E 004°60'0 0.0
2016-May-14 05:31N 43°24' E 004°60'0 0.0
2016-May-14 04:31N 43°24' E 004°60'0 0.0
2016-May-14 03:31N 43°24' E 004°60'0 0.0
2016-May-14 02:31N 43°24' E 004°60'0 0.0
2016-May-14 01:31N 43°24' E 004°60'0 0.0
2016-May-14 00:31N 43°24' E 004°60'0 0.0
2016-May-13 23:31N 43°24' E 004°60'0 0.0
2016-May-13 22:31N 43°24' E 004°60'0 0.0
2016-May-13 21:31N 43°24' E 004°60'0 0.0
2016-May-13 20:31N 43°24' E 004°60'0 0.0
2016-May-13 19:31N 43°24' E 004°60'0 0.0
2016-May-13 18:31N 43°24' E 004°60'0 0.0
2016-May-13 17:31N 43°24' E 004°60'0 0.0
2016-May-13 16:31N 43°24' E 004°60'0 0.0
2016-May-13 15:31N 43°24' E 004°60'0 0.0
2016-May-13 14:31N 43°24' E 004°60'0 0.0
2016-May-13 13:31N 43°24' E 004°60'0 0.0
2016-May-13 12:28N 43°24' E 004°60'0 0.0
2016-May-13 11:31N 43°24' E 004°60'0 0.0
2016-May-13 10:31N 43°24' E 004°60'0 0.0
2016-May-13 09:31N 43°24' E 004°60'0 0.0
2016-May-13 08:31N 43°24' E 004°60'0 0.0
2016-May-13 07:31N 43°24' E 004°60'0 0.0
2016-May-13 06:31N 43°24' E 004°60'0 0.0
2016-May-13 05:31N 43°24' E 004°60'0 0.0
2016-May-13 04:31N 43°24' E 004°60'0 0.0
2016-May-13 03:31N 43°24' E 004°60'0 0.0
2016-May-13 02:31N 43°24' E 004°60'0 0.0
2016-May-13 01:31N 43°24' E 004°60'0 0.0
2016-May-13 00:28N 43°24' E 004°60'0 0.0
2016-May-12 23:31N 43°24' E 004°60'0 0.0
2016-May-12 22:31N 43°24' E 004°60'0 0.0
2016-May-12 21:31N 43°24' E 004°60'0 0.0
2016-May-12 20:31N 43°24' E 004°60'0 0.0
2016-May-12 19:31N 43°24' E 004°60'0 0.0
2016-May-12 18:28N 43°24' E 004°60'0 0.0
2016-May-12 17:19N 43°24' E 004°60'0 0.0
2016-May-12 16:31N 43°24' E 004°60'0 0.0
2016-May-12 15:31N 43°24' E 004°60'0 0.0
2016-May-12 14:31N 43°24' E 004°60'0 0.0
2016-May-12 13:31N 43°24' E 004°60'0 0.0
2016-May-12 12:28N 43°24' E 004°60'0 0.0
2016-May-12 11:31N 43°24' E 004°60'0 0.0
2016-May-12 10:31N 43°24' E 004°60'0 0.0
2016-May-12 09:31N 43°24' E 004°60'0 0.0
2016-May-12 08:31N 43°24' E 004°60'0 0.0
2016-May-12 07:31N 43°24' E 004°60'  

Dump ship's entire track history